sensor_id;sensor_type;location;lat;lon;timestamp;P1;durP1;ratioP1;P2;durP2;ratioP2
65691;SDS011;52411;52.716;6.696;2024-02-26T00:02:21;8.20;;;4.60;;
65691;SDS011;52411;52.716;6.696;2024-02-26T00:04:46;8.82;;;4.60;;
65691;SDS011;52411;52.716;6.696;2024-02-26T00:07:12;9.13;;;4.50;;
65691;SDS011;52411;52.716;6.696;2024-02-26T00:09:38;8.27;;;3.90;;
65691;SDS011;52411;52.716;6.696;2024-02-26T00:12:04;9.13;;;4.68;;
65691;SDS011;52411;52.716;6.696;2024-02-26T00:14:30;9.25;;;4.75;;
65691;SDS011;52411;52.716;6.696;2024-02-26T00:16:56;8.88;;;4.75;;
65691;SDS011;52411;52.716;6.696;2024-02-26T00:19:22;8.80;;;5.05;;
65691;SDS011;52411;52.716;6.696;2024-02-26T00:21:47;11.43;;;5.03;;
65691;SDS011;52411;52.716;6.696;2024-02-26T00:24:13;8.05;;;4.47;;
65691;SDS011;52411;52.716;6.696;2024-02-26T00:26:39;10.68;;;4.82;;
65691;SDS011;52411;52.716;6.696;2024-02-26T00:29:05;9.82;;;4.70;;
65691;SDS011;52411;52.716;6.696;2024-02-26T00:31:30;9.02;;;4.63;;
65691;SDS011;52411;52.716;6.696;2024-02-26T00:33:56;8.63;;;4.40;;
65691;SDS011;52411;52.716;6.696;2024-02-26T00:36:22;11.95;;;5.75;;
65691;SDS011;52411;52.716;6.696;2024-02-26T00:38:47;9.55;;;4.82;;
65691;SDS011;52411;52.716;6.696;2024-02-26T00:41:19;9.38;;;4.68;;
65691;SDS011;52411;52.716;6.696;2024-02-26T00:43:45;9.13;;;5.25;;
65691;SDS011;52411;52.716;6.696;2024-02-26T00:46:11;11.63;;;5.40;;
65691;SDS011;52411;52.716;6.696;2024-02-26T00:48:37;9.82;;;4.97;;
65691;SDS011;52411;52.716;6.696;2024-02-26T00:51:03;11.50;;;4.65;;
65691;SDS011;52411;52.716;6.696;2024-02-26T00:53:33;10.30;;;4.78;;
65691;SDS011;52411;52.716;6.696;2024-02-26T00:55:59;9.00;;;5.10;;
65691;SDS011;52411;52.716;6.696;2024-02-26T00:58:25;8.95;;;4.85;;
65691;SDS011;52411;52.716;6.696;2024-02-26T01:00:51;8.88;;;5.00;;
65691;SDS011;52411;52.716;6.696;2024-02-26T01:03:17;9.65;;;4.93;;
65691;SDS011;52411;52.716;6.696;2024-02-26T01:05:43;8.35;;;5.13;;
65691;SDS011;52411;52.716;6.696;2024-02-26T01:08:09;10.57;;;5.20;;
65691;SDS011;52411;52.716;6.696;2024-02-26T01:10:34;9.43;;;5.45;;
65691;SDS011;52411;52.716;6.696;2024-02-26T01:13:00;9.55;;;4.53;;
65691;SDS011;52411;52.716;6.696;2024-02-26T01:15:26;9.40;;;5.10;;
65691;SDS011;52411;52.716;6.696;2024-02-26T01:17:52;8.73;;;5.20;;
65691;SDS011;52411;52.716;6.696;2024-02-26T01:20:17;8.88;;;4.40;;
65691;SDS011;52411;52.716;6.696;2024-02-26T01:22:43;10.68;;;5.80;;
65691;SDS011;52411;52.716;6.696;2024-02-26T01:25:09;12.05;;;6.32;;
65691;SDS011;52411;52.716;6.696;2024-02-26T01:27:36;11.85;;;6.10;;
65691;SDS011;52411;52.716;6.696;2024-02-26T01:30:03;12.30;;;5.80;;
65691;SDS011;52411;52.716;6.696;2024-02-26T01:32:29;11.18;;;6.13;;
65691;SDS011;52411;52.716;6.696;2024-02-26T01:34:55;11.25;;;6.15;;
65691;SDS011;52411;52.716;6.696;2024-02-26T01:37:21;9.30;;;5.57;;
65691;SDS011;52411;52.716;6.696;2024-02-26T01:39:46;10.90;;;5.75;;
65691;SDS011;52411;52.716;6.696;2024-02-26T01:42:12;10.60;;;5.60;;
65691;SDS011;52411;52.716;6.696;2024-02-26T01:44:38;9.82;;;5.25;;
65691;SDS011;52411;52.716;6.696;2024-02-26T01:47:04;8.55;;;4.93;;
65691;SDS011;52411;52.716;6.696;2024-02-26T01:49:33;11.07;;;5.35;;
65691;SDS011;52411;52.716;6.696;2024-02-26T01:52:00;8.95;;;4.47;;
65691;SDS011;52411;52.716;6.696;2024-02-26T01:54:27;10.50;;;5.72;;
65691;SDS011;52411;52.716;6.696;2024-02-26T01:56:54;8.60;;;4.85;;
65691;SDS011;52411;52.716;6.696;2024-02-26T01:59:20;12.02;;;5.38;;
65691;SDS011;52411;52.716;6.696;2024-02-26T02:01:47;9.52;;;4.72;;
65691;SDS011;52411;52.716;6.696;2024-02-26T02:04:17;9.23;;;5.33;;
65691;SDS011;52411;52.716;6.696;2024-02-26T02:06:43;9.30;;;5.30;;
65691;SDS011;52411;52.716;6.696;2024-02-26T02:09:11;9.55;;;4.85;;
65691;SDS011;52411;52.716;6.696;2024-02-26T02:11:37;10.65;;;5.40;;
65691;SDS011;52411;52.716;6.696;2024-02-26T02:14:03;12.23;;;5.22;;
65691;SDS011;52411;52.716;6.696;2024-02-26T02:16:28;6.72;;;4.00;;
65691;SDS011;52411;52.716;6.696;2024-02-26T02:18:54;8.95;;;5.10;;
65691;SDS011;52411;52.716;6.696;2024-02-26T02:21:20;9.00;;;4.70;;
65691;SDS011;52411;52.716;6.696;2024-02-26T02:23:45;10.07;;;5.25;;
65691;SDS011;52411;52.716;6.696;2024-02-26T02:26:11;9.05;;;4.93;;
65691;SDS011;52411;52.716;6.696;2024-02-26T02:28:38;7.40;;;4.22;;
65691;SDS011;52411;52.716;6.696;2024-02-26T02:31:05;9.88;;;4.80;;
65691;SDS011;52411;52.716;6.696;2024-02-26T02:33:31;8.35;;;5.00;;
65691;SDS011;52411;52.716;6.696;2024-02-26T02:35:58;11.13;;;5.07;;
65691;SDS011;52411;52.716;6.696;2024-02-26T02:38:23;11.27;;;5.30;;
65691;SDS011;52411;52.716;6.696;2024-02-26T02:40:51;11.43;;;5.45;;
65691;SDS011;52411;52.716;6.696;2024-02-26T02:43:17;10.02;;;4.57;;
65691;SDS011;52411;52.716;6.696;2024-02-26T02:45:42;10.10;;;5.32;;
65691;SDS011;52411;52.716;6.696;2024-02-26T02:48:08;10.38;;;5.22;;
65691;SDS011;52411;52.716;6.696;2024-02-26T02:50:34;10.75;;;5.60;;
65691;SDS011;52411;52.716;6.696;2024-02-26T02:52:59;9.88;;;5.57;;
65691;SDS011;52411;52.716;6.696;2024-02-26T02:55:25;8.85;;;4.97;;
65691;SDS011;52411;52.716;6.696;2024-02-26T02:57:50;12.40;;;5.95;;
65691;SDS011;52411;52.716;6.696;2024-02-26T03:00:16;8.73;;;5.43;;
65691;SDS011;52411;52.716;6.696;2024-02-26T03:02:42;8.65;;;4.85;;
65691;SDS011;52411;52.716;6.696;2024-02-26T03:05:10;12.73;;;6.25;;
65691;SDS011;52411;52.716;6.696;2024-02-26T03:07:35;11.23;;;5.55;;
65691;SDS011;52411;52.716;6.696;2024-02-26T03:10:01;11.70;;;6.03;;
65691;SDS011;52411;52.716;6.696;2024-02-26T03:12:27;10.13;;;5.30;;
65691;SDS011;52411;52.716;6.696;2024-02-26T03:14:53;11.68;;;6.15;;
65691;SDS011;52411;52.716;6.696;2024-02-26T03:17:19;9.65;;;4.68;;
65691;SDS011;52411;52.716;6.696;2024-02-26T03:19:46;8.68;;;4.85;;
65691;SDS011;52411;52.716;6.696;2024-02-26T03:22:12;10.32;;;5.20;;
65691;SDS011;52411;52.716;6.696;2024-02-26T03:24:38;10.38;;;5.07;;
65691;SDS011;52411;52.716;6.696;2024-02-26T03:27:04;12.15;;;5.72;;
65691;SDS011;52411;52.716;6.696;2024-02-26T03:29:34;13.32;;;5.32;;
65691;SDS011;52411;52.716;6.696;2024-02-26T03:32:00;10.38;;;5.40;;
65691;SDS011;52411;52.716;6.696;2024-02-26T03:34:26;13.10;;;5.15;;
65691;SDS011;52411;52.716;6.696;2024-02-26T03:36:52;10.10;;;5.15;;
65691;SDS011;52411;52.716;6.696;2024-02-26T03:39:18;13.57;;;5.90;;
65691;SDS011;52411;52.716;6.696;2024-02-26T03:41:44;11.55;;;5.80;;
65691;SDS011;52411;52.716;6.696;2024-02-26T03:44:09;12.55;;;6.07;;
65691;SDS011;52411;52.716;6.696;2024-02-26T03:46:35;11.27;;;5.85;;
65691;SDS011;52411;52.716;6.696;2024-02-26T03:49:01;11.18;;;5.55;;
65691;SDS011;52411;52.716;6.696;2024-02-26T03:51:26;9.75;;;5.53;;
65691;SDS011;52411;52.716;6.696;2024-02-26T03:53:56;10.32;;;5.10;;
65691;SDS011;52411;52.716;6.696;2024-02-26T03:56:23;10.70;;;6.43;;
65691;SDS011;52411;52.716;6.696;2024-02-26T03:58:49;17.15;;;6.88;;
65691;SDS011;52411;52.716;6.696;2024-02-26T04:01:14;12.55;;;5.13;;
65691;SDS011;52411;52.716;6.696;2024-02-26T04:03:40;11.77;;;5.63;;
65691;SDS011;52411;52.716;6.696;2024-02-26T04:06:10;13.73;;;6.30;;
65691;SDS011;52411;52.716;6.696;2024-02-26T04:08:36;13.68;;;6.15;;
65691;SDS011;52411;52.716;6.696;2024-02-26T04:11:03;16.05;;;6.75;;
65691;SDS011;52411;52.716;6.696;2024-02-26T04:13:32;17.40;;;7.75;;
65691;SDS011;52411;52.716;6.696;2024-02-26T04:15:59;14.50;;;6.65;;
65691;SDS011;52411;52.716;6.696;2024-02-26T04:18:26;17.17;;;7.43;;
65691;SDS011;52411;52.716;6.696;2024-02-26T04:20:52;18.63;;;7.13;;
65691;SDS011;52411;52.716;6.696;2024-02-26T04:23:18;18.25;;;7.13;;
65691;SDS011;52411;52.716;6.696;2024-02-26T04:25:44;17.17;;;8.05;;
65691;SDS011;52411;52.716;6.696;2024-02-26T04:28:10;16.10;;;7.13;;
65691;SDS011;52411;52.716;6.696;2024-02-26T04:30:36;15.95;;;7.65;;
65691;SDS011;52411;52.716;6.696;2024-02-26T04:33:02;14.45;;;6.88;;
65691;SDS011;52411;52.716;6.696;2024-02-26T04:35:27;14.57;;;6.82;;
65691;SDS011;52411;52.716;6.696;2024-02-26T04:37:53;10.15;;;4.85;;
65691;SDS011;52411;52.716;6.696;2024-02-26T04:40:19;21.63;;;7.07;;
65691;SDS011;52411;52.716;6.696;2024-02-26T04:42:44;12.77;;;6.10;;
65691;SDS011;52411;52.716;6.696;2024-02-26T04:45:10;16.08;;;6.57;;
65691;SDS011;52411;52.716;6.696;2024-02-26T04:47:35;14.43;;;6.25;;
65691;SDS011;52411;52.716;6.696;2024-02-26T04:50:01;17.50;;;6.63;;
65691;SDS011;52411;52.716;6.696;2024-02-26T04:52:27;15.20;;;6.50;;
65691;SDS011;52411;52.716;6.696;2024-02-26T04:54:53;13.93;;;5.70;;
65691;SDS011;52411;52.716;6.696;2024-02-26T04:57:19;18.38;;;6.72;;
65691;SDS011;52411;52.716;6.696;2024-02-26T04:59:46;11.80;;;6.20;;
65691;SDS011;52411;52.716;6.696;2024-02-26T05:02:12;16.73;;;6.95;;
65691;SDS011;52411;52.716;6.696;2024-02-26T05:04:38;15.43;;;6.63;;
65691;SDS011;52411;52.716;6.696;2024-02-26T05:07:04;13.90;;;5.97;;
65691;SDS011;52411;52.716;6.696;2024-02-26T05:09:29;15.60;;;6.13;;
65691;SDS011;52411;52.716;6.696;2024-02-26T05:11:55;13.60;;;6.40;;
65691;SDS011;52411;52.716;6.696;2024-02-26T05:14:21;14.45;;;7.15;;
65691;SDS011;52411;52.716;6.696;2024-02-26T05:16:46;14.95;;;7.40;;
65691;SDS011;52411;52.716;6.696;2024-02-26T05:19:13;18.85;;;6.53;;
65691;SDS011;52411;52.716;6.696;2024-02-26T05:21:39;16.08;;;5.68;;
65691;SDS011;52411;52.716;6.696;2024-02-26T05:24:05;14.43;;;6.43;;
65691;SDS011;52411;52.716;6.696;2024-02-26T05:26:31;13.95;;;5.30;;
65691;SDS011;52411;52.716;6.696;2024-02-26T05:28:56;11.18;;;5.20;;
65691;SDS011;52411;52.716;6.696;2024-02-26T05:31:26;14.10;;;5.57;;
65691;SDS011;52411;52.716;6.696;2024-02-26T05:33:51;10.63;;;4.65;;
65691;SDS011;52411;52.716;6.696;2024-02-26T05:36:20;12.13;;;5.53;;
65691;SDS011;52411;52.716;6.696;2024-02-26T05:38:47;11.40;;;5.38;;
65691;SDS011;52411;52.716;6.696;2024-02-26T05:41:16;11.20;;;5.30;;
65691;SDS011;52411;52.716;6.696;2024-02-26T05:43:48;12.25;;;4.82;;
65691;SDS011;52411;52.716;6.696;2024-02-26T05:46:17;10.98;;;5.38;;
65691;SDS011;52411;52.716;6.696;2024-02-26T05:48:44;9.55;;;4.93;;
65691;SDS011;52411;52.716;6.696;2024-02-26T05:51:09;11.90;;;5.03;;
65691;SDS011;52411;52.716;6.696;2024-02-26T05:53:35;10.20;;;5.18;;
65691;SDS011;52411;52.716;6.696;2024-02-26T05:56:01;9.35;;;4.40;;
65691;SDS011;52411;52.716;6.696;2024-02-26T05:58:26;10.50;;;4.90;;
65691;SDS011;52411;52.716;6.696;2024-02-26T06:00:52;9.00;;;4.65;;
65691;SDS011;52411;52.716;6.696;2024-02-26T06:03:17;8.55;;;4.18;;
65691;SDS011;52411;52.716;6.696;2024-02-26T06:05:43;7.00;;;3.80;;
65691;SDS011;52411;52.716;6.696;2024-02-26T06:08:08;6.63;;;3.95;;
65691;SDS011;52411;52.716;6.696;2024-02-26T06:10:34;7.07;;;4.20;;
65691;SDS011;52411;52.716;6.696;2024-02-26T06:13:00;6.32;;;3.63;;
65691;SDS011;52411;52.716;6.696;2024-02-26T06:15:25;8.85;;;4.20;;
65691;SDS011;52411;52.716;6.696;2024-02-26T06:17:51;7.10;;;4.03;;
65691;SDS011;52411;52.716;6.696;2024-02-26T06:20:16;8.85;;;3.55;;
65691;SDS011;52411;52.716;6.696;2024-02-26T06:22:42;7.10;;;3.70;;
65691;SDS011;52411;52.716;6.696;2024-02-26T06:25:08;6.43;;;3.15;;
65691;SDS011;52411;52.716;6.696;2024-02-26T06:27:34;6.80;;;3.88;;
65691;SDS011;52411;52.716;6.696;2024-02-26T06:30:00;7.28;;;3.63;;
65691;SDS011;52411;52.716;6.696;2024-02-26T06:32:25;6.97;;;3.95;;
65691;SDS011;52411;52.716;6.696;2024-02-26T06:34:53;8.43;;;3.58;;
65691;SDS011;52411;52.716;6.696;2024-02-26T06:37:19;6.38;;;3.65;;
65691;SDS011;52411;52.716;6.696;2024-02-26T06:39:45;5.20;;;2.83;;
65691;SDS011;52411;52.716;6.696;2024-02-26T06:42:11;8.05;;;3.88;;
65691;SDS011;52411;52.716;6.696;2024-02-26T06:44:37;6.10;;;3.30;;
65691;SDS011;52411;52.716;6.696;2024-02-26T06:47:02;7.13;;;3.88;;
65691;SDS011;52411;52.716;6.696;2024-02-26T06:49:29;8.80;;;3.90;;
65691;SDS011;52411;52.716;6.696;2024-02-26T06:51:55;7.75;;;4.03;;
65691;SDS011;52411;52.716;6.696;2024-02-26T06:54:20;5.82;;;3.03;;
65691;SDS011;52411;52.716;6.696;2024-02-26T06:56:46;7.82;;;3.67;;
65691;SDS011;52411;52.716;6.696;2024-02-26T06:59:12;4.72;;;2.80;;
65691;SDS011;52411;52.716;6.696;2024-02-26T07:01:39;6.38;;;3.28;;
65691;SDS011;52411;52.716;6.696;2024-02-26T07:04:06;7.38;;;3.80;;
65691;SDS011;52411;52.716;6.696;2024-02-26T07:06:31;4.60;;;2.95;;
65691;SDS011;52411;52.716;6.696;2024-02-26T07:08:57;6.10;;;2.75;;
65691;SDS011;52411;52.716;6.696;2024-02-26T07:11:22;6.43;;;3.40;;
65691;SDS011;52411;52.716;6.696;2024-02-26T07:13:48;6.07;;;3.17;;
65691;SDS011;52411;52.716;6.696;2024-02-26T07:16:14;5.65;;;2.67;;
65691;SDS011;52411;52.716;6.696;2024-02-26T07:18:40;5.93;;;3.15;;
65691;SDS011;52411;52.716;6.696;2024-02-26T07:21:06;6.20;;;3.15;;
65691;SDS011;52411;52.716;6.696;2024-02-26T07:23:32;6.03;;;3.17;;
65691;SDS011;52411;52.716;6.696;2024-02-26T07:25:58;7.55;;;3.63;;
65691;SDS011;52411;52.716;6.696;2024-02-26T07:28:24;6.07;;;2.80;;
65691;SDS011;52411;52.716;6.696;2024-02-26T07:30:50;4.97;;;2.95;;
65691;SDS011;52411;52.716;6.696;2024-02-26T07:33:15;4.63;;;2.85;;
65691;SDS011;52411;52.716;6.696;2024-02-26T07:35:41;5.13;;;2.63;;
65691;SDS011;52411;52.716;6.696;2024-02-26T07:38:07;5.93;;;2.97;;
65691;SDS011;52411;52.716;6.696;2024-02-26T07:40:32;6.72;;;3.13;;
65691;SDS011;52411;52.716;6.696;2024-02-26T07:42:58;5.30;;;2.70;;
65691;SDS011;52411;52.716;6.696;2024-02-26T07:45:24;4.40;;;2.38;;
65691;SDS011;52411;52.716;6.696;2024-02-26T07:47:49;6.32;;;3.40;;
65691;SDS011;52411;52.716;6.696;2024-02-26T07:50:16;5.28;;;2.50;;
65691;SDS011;52411;52.716;6.696;2024-02-26T07:52:42;4.57;;;2.40;;
65691;SDS011;52411;52.716;6.696;2024-02-26T07:55:09;7.50;;;2.95;;
65691;SDS011;52411;52.716;6.696;2024-02-26T07:57:35;5.53;;;2.58;;
65691;SDS011;52411;52.716;6.696;2024-02-26T08:00:04;5.50;;;3.00;;
65691;SDS011;52411;52.716;6.696;2024-02-26T08:02:34;3.88;;;2.60;;
65691;SDS011;52411;52.716;6.696;2024-02-26T08:05:00;6.30;;;3.13;;
65691;SDS011;52411;52.716;6.696;2024-02-26T08:07:25;3.67;;;2.63;;
65691;SDS011;52411;52.716;6.696;2024-02-26T08:09:51;3.65;;;2.22;;
65691;SDS011;52411;52.716;6.696;2024-02-26T08:12:17;4.60;;;2.45;;
65691;SDS011;52411;52.716;6.696;2024-02-26T08:14:42;4.75;;;2.65;;
65691;SDS011;52411;52.716;6.696;2024-02-26T08:17:09;4.00;;;2.50;;
65691;SDS011;52411;52.716;6.696;2024-02-26T08:19:34;5.32;;;2.47;;
65691;SDS011;52411;52.716;6.696;2024-02-26T08:22:01;5.07;;;2.53;;
65691;SDS011;52411;52.716;6.696;2024-02-26T08:24:27;5.97;;;2.22;;
65691;SDS011;52411;52.716;6.696;2024-02-26T08:26:53;3.30;;;2.08;;
65691;SDS011;52411;52.716;6.696;2024-02-26T08:29:18;4.65;;;2.85;;
65691;SDS011;52411;52.716;6.696;2024-02-26T08:31:44;5.25;;;2.60;;
65691;SDS011;52411;52.716;6.696;2024-02-26T08:34:10;4.07;;;2.33;;
65691;SDS011;52411;52.716;6.696;2024-02-26T08:36:35;4.50;;;2.25;;
65691;SDS011;52411;52.716;6.696;2024-02-26T08:39:01;6.63;;;2.67;;
65691;SDS011;52411;52.716;6.696;2024-02-26T08:41:27;4.22;;;2.63;;
65691;SDS011;52411;52.716;6.696;2024-02-26T08:43:53;5.45;;;2.90;;
65691;SDS011;52411;52.716;6.696;2024-02-26T08:46:19;4.68;;;2.50;;
65691;SDS011;52411;52.716;6.696;2024-02-26T08:48:45;5.75;;;2.63;;
65691;SDS011;52411;52.716;6.696;2024-02-26T08:51:11;3.88;;;2.42;;
65691;SDS011;52411;52.716;6.696;2024-02-26T08:53:38;6.05;;;2.92;;
65691;SDS011;52411;52.716;6.696;2024-02-26T08:56:04;6.30;;;3.20;;
65691;SDS011;52411;52.716;6.696;2024-02-26T08:58:30;5.10;;;2.70;;
65691;SDS011;52411;52.716;6.696;2024-02-26T09:00:55;4.32;;;2.35;;
65691;SDS011;52411;52.716;6.696;2024-02-26T09:03:21;5.38;;;2.80;;
65691;SDS011;52411;52.716;6.696;2024-02-26T09:05:48;4.47;;;2.22;;
65691;SDS011;52411;52.716;6.696;2024-02-26T09:08:14;3.42;;;2.20;;
65691;SDS011;52411;52.716;6.696;2024-02-26T09:10:39;2.65;;;1.70;;
65691;SDS011;52411;52.716;6.696;2024-02-26T09:13:05;4.03;;;2.42;;
65691;SDS011;52411;52.716;6.696;2024-02-26T09:15:31;6.57;;;3.15;;
65691;SDS011;52411;52.716;6.696;2024-02-26T09:17:57;4.13;;;2.50;;
65691;SDS011;52411;52.716;6.696;2024-02-26T09:20:22;3.53;;;1.98;;
65691;SDS011;52411;52.716;6.696;2024-02-26T09:22:49;5.57;;;2.88;;
65691;SDS011;52411;52.716;6.696;2024-02-26T09:25:15;5.32;;;2.70;;
65691;SDS011;52411;52.716;6.696;2024-02-26T09:27:44;4.28;;;2.20;;
65691;SDS011;52411;52.716;6.696;2024-02-26T09:30:10;5.20;;;2.28;;
65691;SDS011;52411;52.716;6.696;2024-02-26T09:32:37;4.22;;;2.10;;
65691;SDS011;52411;52.716;6.696;2024-02-26T09:35:03;5.45;;;2.40;;
65691;SDS011;52411;52.716;6.696;2024-02-26T09:37:29;4.47;;;2.33;;
65691;SDS011;52411;52.716;6.696;2024-02-26T09:39:54;4.47;;;2.25;;
65691;SDS011;52411;52.716;6.696;2024-02-26T09:42:20;5.03;;;2.50;;
65691;SDS011;52411;52.716;6.696;2024-02-26T09:44:49;4.03;;;2.00;;
65691;SDS011;52411;52.716;6.696;2024-02-26T09:47:18;4.25;;;2.55;;
65691;SDS011;52411;52.716;6.696;2024-02-26T09:49:46;3.15;;;2.00;;
65691;SDS011;52411;52.716;6.696;2024-02-26T09:52:13;3.95;;;2.20;;
65691;SDS011;52411;52.716;6.696;2024-02-26T09:54:40;3.92;;;2.47;;
65691;SDS011;52411;52.716;6.696;2024-02-26T09:57:07;3.33;;;2.10;;
65691;SDS011;52411;52.716;6.696;2024-02-26T09:59:40;4.45;;;2.65;;
65691;SDS011;52411;52.716;6.696;2024-02-26T10:02:13;4.10;;;2.08;;
65691;SDS011;52411;52.716;6.696;2024-02-26T10:04:40;5.50;;;2.63;;
65691;SDS011;52411;52.716;6.696;2024-02-26T10:07:10;4.35;;;2.38;;
65691;SDS011;52411;52.716;6.696;2024-02-26T10:09:36;5.43;;;2.53;;
65691;SDS011;52411;52.716;6.696;2024-02-26T10:12:03;5.35;;;2.60;;
65691;SDS011;52411;52.716;6.696;2024-02-26T10:14:30;5.60;;;2.40;;
65691;SDS011;52411;52.716;6.696;2024-02-26T10:16:55;5.05;;;2.53;;
65691;SDS011;52411;52.716;6.696;2024-02-26T10:19:28;6.38;;;2.80;;
65691;SDS011;52411;52.716;6.696;2024-02-26T10:21:58;4.22;;;2.40;;
65691;SDS011;52411;52.716;6.696;2024-02-26T10:24:25;5.47;;;2.38;;
65691;SDS011;52411;52.716;6.696;2024-02-26T10:26:52;5.55;;;2.60;;
65691;SDS011;52411;52.716;6.696;2024-02-26T10:29:20;4.07;;;2.22;;
65691;SDS011;52411;52.716;6.696;2024-02-26T10:31:46;7.68;;;2.88;;
65691;SDS011;52411;52.716;6.696;2024-02-26T10:34:12;4.20;;;2.20;;
65691;SDS011;52411;52.716;6.696;2024-02-26T10:36:40;5.07;;;2.90;;
65691;SDS011;52411;52.716;6.696;2024-02-26T10:39:09;6.80;;;2.75;;
65691;SDS011;52411;52.716;6.696;2024-02-26T10:41:37;5.22;;;2.50;;
65691;SDS011;52411;52.716;6.696;2024-02-26T10:44:03;4.45;;;2.50;;
65691;SDS011;52411;52.716;6.696;2024-02-26T10:46:29;3.75;;;2.13;;
65691;SDS011;52411;52.716;6.696;2024-02-26T10:48:55;6.13;;;2.97;;
65691;SDS011;52411;52.716;6.696;2024-02-26T10:51:28;5.13;;;2.85;;
65691;SDS011;52411;52.716;6.696;2024-02-26T10:53:55;5.75;;;2.70;;
65691;SDS011;52411;52.716;6.696;2024-02-26T10:56:24;7.20;;;3.38;;
65691;SDS011;52411;52.716;6.696;2024-02-26T10:58:52;4.78;;;2.80;;
65691;SDS011;52411;52.716;6.696;2024-02-26T11:01:18;5.63;;;2.83;;
65691;SDS011;52411;52.716;6.696;2024-02-26T11:03:46;5.22;;;2.60;;
65691;SDS011;52411;52.716;6.696;2024-02-26T11:06:15;5.88;;;2.60;;
65691;SDS011;52411;52.716;6.696;2024-02-26T11:08:41;5.15;;;2.70;;
65691;SDS011;52411;52.716;6.696;2024-02-26T11:11:07;5.85;;;2.88;;
65691;SDS011;52411;52.716;6.696;2024-02-26T11:13:33;5.68;;;2.60;;
65691;SDS011;52411;52.716;6.696;2024-02-26T11:16:03;5.35;;;2.78;;
65691;SDS011;52411;52.716;6.696;2024-02-26T11:18:31;5.40;;;2.65;;
65691;SDS011;52411;52.716;6.696;2024-02-26T11:20:57;5.65;;;2.88;;
65691;SDS011;52411;52.716;6.696;2024-02-26T11:23:25;4.78;;;2.63;;
65691;SDS011;52411;52.716;6.696;2024-02-26T11:25:52;6.28;;;2.67;;
65691;SDS011;52411;52.716;6.696;2024-02-26T11:28:20;6.45;;;2.33;;
65691;SDS011;52411;52.716;6.696;2024-02-26T11:30:48;5.05;;;2.55;;
65691;SDS011;52411;52.716;6.696;2024-02-26T11:33:15;4.65;;;2.67;;
65691;SDS011;52411;52.716;6.696;2024-02-26T11:35:41;6.60;;;3.25;;
65691;SDS011;52411;52.716;6.696;2024-02-26T11:38:07;5.75;;;2.72;;
65691;SDS011;52411;52.716;6.696;2024-02-26T11:40:36;5.32;;;3.20;;
65691;SDS011;52411;52.716;6.696;2024-02-26T11:43:04;6.07;;;2.95;;
65691;SDS011;52411;52.716;6.696;2024-02-26T11:48:12;4.57;;;2.80;;
65691;SDS011;52411;52.716;6.696;2024-02-26T11:50:51;5.43;;;2.78;;
65691;SDS011;52411;52.716;6.696;2024-02-26T11:53:28;5.65;;;2.70;;
65691;SDS011;52411;52.716;6.696;2024-02-26T11:58:44;4.90;;;2.83;;
65691;SDS011;52411;52.716;6.696;2024-02-26T12:04:04;8.02;;;3.20;;
65691;SDS011;52411;52.716;6.696;2024-02-26T12:06:42;5.10;;;2.53;;
65691;SDS011;52411;52.716;6.696;2024-02-26T12:09:12;4.17;;;2.47;;
65691;SDS011;52411;52.716;6.696;2024-02-26T12:11:39;6.00;;;3.25;;
65691;SDS011;52411;52.716;6.696;2024-02-26T12:14:06;7.85;;;3.17;;
65691;SDS011;52411;52.716;6.696;2024-02-26T12:19:05;6.32;;;2.90;;
65691;SDS011;52411;52.716;6.696;2024-02-26T12:21:34;6.53;;;3.58;;
65691;SDS011;52411;52.716;6.696;2024-02-26T12:24:15;4.28;;;2.10;;
65691;SDS011;52411;52.716;6.696;2024-02-26T12:26:41;4.43;;;2.72;;
65691;SDS011;52411;52.716;6.696;2024-02-26T12:29:07;5.55;;;2.53;;
65691;SDS011;52411;52.716;6.696;2024-02-26T12:31:33;5.40;;;3.15;;
65691;SDS011;52411;52.716;6.696;2024-02-26T12:34:02;5.93;;;3.38;;
65691;SDS011;52411;52.716;6.696;2024-02-26T12:36:28;5.50;;;2.70;;
65691;SDS011;52411;52.716;6.696;2024-02-26T12:38:54;5.97;;;2.90;;
65691;SDS011;52411;52.716;6.696;2024-02-26T12:41:20;7.97;;;3.05;;
65691;SDS011;52411;52.716;6.696;2024-02-26T12:43:46;6.28;;;2.95;;
65691;SDS011;52411;52.716;6.696;2024-02-26T12:46:12;5.35;;;2.75;;
65691;SDS011;52411;52.716;6.696;2024-02-26T12:48:44;5.25;;;2.85;;
65691;SDS011;52411;52.716;6.696;2024-02-26T12:51:11;5.47;;;2.65;;
65691;SDS011;52411;52.716;6.696;2024-02-26T12:53:39;5.95;;;2.78;;
65691;SDS011;52411;52.716;6.696;2024-02-26T12:56:06;4.22;;;2.50;;
65691;SDS011;52411;52.716;6.696;2024-02-26T12:58:33;4.97;;;2.70;;
65691;SDS011;52411;52.716;6.696;2024-02-26T13:01:03;3.70;;;1.75;;
65691;SDS011;52411;52.716;6.696;2024-02-26T13:03:29;3.67;;;1.77;;
65691;SDS011;52411;52.716;6.696;2024-02-26T13:05:56;3.80;;;2.35;;
65691;SDS011;52411;52.716;6.696;2024-02-26T13:08:22;6.78;;;3.33;;
65691;SDS011;52411;52.716;6.696;2024-02-26T13:10:49;4.78;;;2.50;;
65691;SDS011;52411;52.716;6.696;2024-02-26T13:13:16;4.68;;;2.78;;
65691;SDS011;52411;52.716;6.696;2024-02-26T13:15:45;4.50;;;2.35;;
65691;SDS011;52411;52.716;6.696;2024-02-26T13:18:11;5.78;;;2.80;;
65691;SDS011;52411;52.716;6.696;2024-02-26T13:20:41;3.85;;;2.33;;
65691;SDS011;52411;52.716;6.696;2024-02-26T13:23:11;3.92;;;2.30;;
65691;SDS011;52411;52.716;6.696;2024-02-26T13:25:37;5.75;;;2.72;;
65691;SDS011;52411;52.716;6.696;2024-02-26T13:28:07;4.55;;;2.55;;
65691;SDS011;52411;52.716;6.696;2024-02-26T13:30:34;5.35;;;2.65;;
65691;SDS011;52411;52.716;6.696;2024-02-26T13:33:07;5.25;;;2.50;;
65691;SDS011;52411;52.716;6.696;2024-02-26T13:35:36;3.70;;;2.17;;
65691;SDS011;52411;52.716;6.696;2024-02-26T13:38:04;5.82;;;2.75;;
65691;SDS011;52411;52.716;6.696;2024-02-26T13:40:31;6.03;;;2.70;;
65691;SDS011;52411;52.716;6.696;2024-02-26T13:42:56;2.60;;;1.60;;
65691;SDS011;52411;52.716;6.696;2024-02-26T13:45:22;2.95;;;1.98;;
65691;SDS011;52411;52.716;6.696;2024-02-26T13:47:48;5.63;;;2.85;;
65691;SDS011;52411;52.716;6.696;2024-02-26T13:50:13;6.22;;;3.25;;
65691;SDS011;52411;52.716;6.696;2024-02-26T13:52:39;4.88;;;2.60;;
65691;SDS011;52411;52.716;6.696;2024-02-26T13:55:05;8.13;;;2.90;;
65691;SDS011;52411;52.716;6.696;2024-02-26T13:57:32;5.60;;;2.80;;
65691;SDS011;52411;52.716;6.696;2024-02-26T13:59:58;4.50;;;2.53;;
65691;SDS011;52411;52.716;6.696;2024-02-26T14:02:23;4.68;;;2.83;;
65691;SDS011;52411;52.716;6.696;2024-02-26T14:04:49;7.05;;;3.40;;
65691;SDS011;52411;52.716;6.696;2024-02-26T14:07:15;2.88;;;1.42;;
65691;SDS011;52411;52.716;6.696;2024-02-26T14:09:42;4.57;;;2.78;;
65691;SDS011;52411;52.716;6.696;2024-02-26T14:12:08;3.17;;;1.70;;
65691;SDS011;52411;52.716;6.696;2024-02-26T14:14:34;4.25;;;2.85;;
65691;SDS011;52411;52.716;6.696;2024-02-26T14:17:03;4.30;;;2.28;;
65691;SDS011;52411;52.716;6.696;2024-02-26T14:19:29;10.98;;;3.33;;
65691;SDS011;52411;52.716;6.696;2024-02-26T14:21:54;3.08;;;1.83;;
65691;SDS011;52411;52.716;6.696;2024-02-26T14:24:20;5.30;;;2.67;;
65691;SDS011;52411;52.716;6.696;2024-02-26T14:26:46;4.25;;;2.53;;
65691;SDS011;52411;52.716;6.696;2024-02-26T14:29:11;3.42;;;2.13;;
65691;SDS011;52411;52.716;6.696;2024-02-26T14:31:37;5.05;;;3.08;;
65691;SDS011;52411;52.716;6.696;2024-02-26T14:34:03;5.53;;;2.85;;
65691;SDS011;52411;52.716;6.696;2024-02-26T14:36:28;6.82;;;2.40;;
65691;SDS011;52411;52.716;6.696;2024-02-26T14:38:54;6.30;;;2.85;;
65691;SDS011;52411;52.716;6.696;2024-02-26T14:41:20;5.10;;;2.80;;
65691;SDS011;52411;52.716;6.696;2024-02-26T14:43:45;6.28;;;2.92;;
65691;SDS011;52411;52.716;6.696;2024-02-26T14:46:11;4.55;;;2.60;;
65691;SDS011;52411;52.716;6.696;2024-02-26T14:48:36;5.93;;;3.08;;
65691;SDS011;52411;52.716;6.696;2024-02-26T14:51:02;5.38;;;2.92;;